Time;durP1;ratioP1;P1;durP2;ratioP2;P2;SDS_P1;SDS_P2;PMS_P1;PMS_P2;Temp;Humidity;BMP_temperature;BMP_pressure;BME280_temperature;BME280_humidity;BME280_pressure;Samples;Min_cycle;Max_cycle;Signal;HPM_P1;HPM_P2
2022/02/10 00:04:22;;;;;;;17.00;6.10;;;;;;;5.00;56.98;102025.03;5038277;28;20123;-80
2022/02/10 00:20:06;;;;;;;10.88;5.75;;;;;;;4.98;57.07;101999.97;5022237;28;20986;-82
2022/02/10 00:23:00;;;;;;;24.75;7.38;;;;;;;4.89;57.54;102007.75;5031695;28;20045;-81
2022/02/10 00:36:23;;;;;;;22.25;7.07;;;;;;;4.98;57.29;101981.84;5038723;28;20459;-80
2022/02/10 00:38:58;;;;;;;16.92;6.80;;;;;;;4.89;57.52;101972.31;5022131;28;20128;-79
2022/02/10 00:41:23;;;;;;;16.65;6.07;;;;;;;4.83;57.84;101973.16;5012821;28;20036;-78
2022/02/10 00:43:49;;;;;;;11.63;5.85;;;;;;;4.94;57.36;101972.34;5037977;28;20049;-82
2022/02/10 00:46:15;;;;;;;26.83;7.70;;;;;;;4.96;57.53;101966.28;5056181;28;20103;-81
2022/02/10 00:48:41;;;;;;;17.70;7.00;;;;;;;4.74;58.42;101960.16;5037616;28;20041;-81
2022/02/10 00:51:07;;;;;;;19.02;7.55;;;;;;;4.98;57.28;101955.94;5022798;28;20029;-79
2022/02/10 00:53:37;;;;;;;22.00;7.88;;;;;;;5.03;57.19;101960.28;5021351;28;20288;-79
2022/02/10 00:56:05;;;;;;;18.45;7.30;;;;;;;5.05;57.56;101955.06;4999222;28;20045;-81
2022/02/10 00:58:32;;;;;;;17.35;7.60;;;;;;;5.13;57.20;101953.34;4998618;28;20033;-79
2022/02/10 01:30:21;;;;;;;21.92;9.70;;;;;;;5.13;57.86;101904.09;5053782;28;20037;-81
2022/02/10 01:32:50;;;;;;;30.02;9.43;;;;;;;5.19;57.73;101901.53;5011216;28;20049;-80
2022/02/10 01:35:21;;;;;;;22.25;8.75;;;;;;;5.19;57.93;101892.84;5020683;28;20080;-79
2022/02/10 01:37:46;;;;;;;25.80;9.32;;;;;;;5.20;57.81;101890.28;5024158;28;20595;-79
2022/02/10 01:40:59;;;;;;;23.88;8.32;;;;;;;5.24;57.54;101892.00;5018135;28;20056;-79
2022/02/10 02:04:54;;;;;;;20.02;8.25;;;;;;;4.86;59.12;101857.47;5015300;28;20080;-81
2022/02/10 02:07:27;;;;;;;18.58;7.07;;;;;;;4.82;59.15;101854.84;4995314;28;20041;-80
2022/02/10 02:09:53;;;;;;;18.55;7.78;;;;;;;4.91;58.87;101846.25;5014640;28;20102;-81
2022/02/10 02:12:19;;;;;;;24.70;8.25;;;;;;;5.10;58.55;101849.69;5015976;28;20045;-79
2022/02/10 02:14:44;;;;;;;21.40;8.10;;;;;;;5.16;58.46;101848.81;5048283;28;20041;-79
2022/02/10 02:17:10;;;;;;;14.65;7.65;;;;;;;5.24;58.24;101853.13;5049434;28;20065;-81
2022/02/10 02:19:36;;;;;;;19.20;6.57;;;;;;;5.30;57.84;101843.59;5016549;28;20053;-79
2022/02/10 02:22:03;;;;;;;14.50;6.78;;;;;;;5.20;57.90;101845.34;5001390;28;20183;-79
2022/02/10 02:24:29;;;;;;;20.42;7.35;;;;;;;5.31;57.81;101837.56;5009990;28;20325;-80
2022/02/10 02:26:58;;;;;;;13.23;6.90;;;;;;;5.36;57.61;101846.19;5020846;28;20233;-81
2022/02/10 02:29:44;;;;;;;17.25;6.43;;;;;;;5.33;57.83;101839.28;5038019;28;20484;-79
2022/02/10 02:32:16;;;;;;;17.52;7.20;;;;;;;5.26;57.65;101832.38;5007164;28;20452;-79
2022/02/10 03:07:17;;;;;;;12.73;5.18;;;;;;;5.15;58.29;101792.69;5017135;28;20045;-80
2022/02/10 03:09:54;;;;;;;17.17;5.85;;;;;;;5.13;58.19;101792.66;5021833;28;20546;-80
2022/02/10 03:12:20;;;;;;;15.02;4.72;;;;;;;5.21;58.15;101788.34;5045517;28;20065;-80
2022/02/10 03:14:49;;;;;;;8.93;4.82;;;;;;;5.29;57.75;101782.25;5043394;28;20071;-78
2022/02/10 03:17:57;;;;;;;13.15;5.70;;;;;;;5.27;57.79;101784.00;5043200;28;20047;-79
2022/02/10 04:03:44;;;;;;;12.40;5.70;;;;;;;5.12;57.72;101731.31;5023623;28;20068;-78
2022/02/10 04:09:32;;;;;;;13.95;5.90;;;;;;;5.09;57.88;101723.56;5028264;28;20547;-79
2022/02/10 04:17:02;;;;;;;15.23;6.72;;;;;;;5.19;57.62;101722.69;5071915;28;20029;-77
2022/02/10 04:22:13;;;;;;;11.60;5.90;;;;;;;5.12;57.62;101726.13;5043227;28;20108;-80
2022/02/10 04:25:12;;;;;;;12.07;5.15;;;;;;;5.15;57.58;101722.72;5026200;28;20043;-77
2022/02/10 04:30:24;;;;;;;13.82;5.57;;;;;;;5.05;58.15;101714.09;5074675;28;20087;-78
2022/02/10 04:57:30;;;;;;;15.90;7.13;;;;;;;5.02;57.96;101708.91;5014148;28;20051;-80
2022/02/10 05:14:47;;;;;;;11.00;5.88;;;;;;;5.07;57.46;101701.97;5073590;28;20036;-80
2022/02/10 05:34:29;;;;;;;15.50;5.03;;;;;;;4.67;58.59;101691.72;5038322;28;20057;-81
2022/02/10 05:36:57;;;;;;;10.32;4.70;;;;;;;4.88;58.09;101697.72;5029472;28;20268;-80
2022/02/10 05:39:26;;;;;;;10.10;4.70;;;;;;;4.91;58.41;101702.91;5057392;28;20546;-79
2022/02/10 05:45:05;;;;;;;12.63;5.65;;;;;;;4.95;58.23;101702.03;5038066;28;20071;-80
2022/02/10 06:49:46;;;;;;;6.93;3.55;;;;;;;4.50;58.32;101681.41;5056815;28;20025;-80
2022/02/10 06:55:23;;;;;;;11.43;4.15;;;;;;;4.31;58.74;101695.22;5021441;28;20037;-77
2022/02/10 07:58:24;;;;;;;9.35;4.07;;;;;;;4.76;56.86;101722.75;5020349;28;20037;-79
2022/02/10 09:03:46;;;;;;;6.68;1.25;;;;;;;5.53;53.96;101712.16;5050639;28;20519;-80
2022/02/10 09:07:05;;;;;;;7.82;0.82;;;;;;;5.30;53.85;101711.38;5035513;28;20033;-79
2022/02/10 09:14:34;;;;;;;6.80;1.38;;;;;;;6.78;50.84;101704.25;5051480;28;20044;-80
2022/02/10 09:55:16;;;;;;;12.50;1.27;;;;;;;5.54;50.98;101731.16;5037403;28;20537;-80
2022/02/10 10:02:52;;;;;;;7.88;0.50;;;;;;;6.09;50.24;101731.66;5037071;28;20033;-80
2022/02/10 10:05:29;;;;;;;3.10;0.50;;;;;;;6.52;49.34;101737.41;5038361;28;20575;-85
2022/02/10 10:08:15;;;;;;;7.63;0.90;;;;;;;6.26;49.26;101730.66;5001039;28;20044;-80
2022/02/10 10:21:06;;;;;;;7.03;1.20;;;;;;;6.73;48.03;101729.41;5077599;28;20043;-81
2022/02/10 10:51:11;;;;;;;4.95;0.43;;;;;;;7.05;45.67;101743.81;5052420;28;20040;-79
2022/02/10 10:56:18;;;;;;;5.00;0.63;;;;;;;8.12;43.99;101737.16;5069620;28;20037;-77
2022/02/10 13:26:36;;;;;;;5.63;0.20;;;;;;;5.80;41.85;101726.69;5074715;28;20026;-78
2022/02/10 13:32:09;;;;;;;5.35;0.80;;;;;;;6.38;41.13;101720.22;5045402;28;20033;-82
2022/02/10 14:15:31;;;;;;;3.38;0.43;;;;;;;5.40;43.94;101724.31;5044780;28;20119;-79
2022/02/10 14:18:08;;;;;;;11.75;0.50;;;;;;;5.76;43.80;101721.53;5027821;28;20426;-81
2022/02/10 14:28:26;;;;;;;12.20;0.70;;;;;;;6.28;41.00;101740.22;5038377;28;20104;-78
2022/02/10 14:30:52;;;;;;;9.20;0.70;;;;;;;5.85;41.39;101739.63;5024488;28;20055;-80
2022/02/10 14:33:25;;;;;;;10.65;1.02;;;;;;;5.65;41.24;101747.53;5051624;28;20036;-79
2022/02/10 14:36:16;;;;;;;5.68;0.40;;;;;;;5.35;41.65;101746.81;5025766;28;21515;-78
2022/02/10 14:42:06;;;;;;;5.88;1.55;;;;;;;5.50;41.67;101743.25;5058914;28;20033;-78
2022/02/10 15:49:28;;;;;;;7.95;0.30;;;;;;;3.78;46.93;101758.97;5030980;28;20076;-79
2022/02/10 15:54:29;;;;;;;8.38;0.95;;;;;;;3.49;47.86;101762.34;5061255;28;20473;-79
2022/02/10 16:19:04;;;;;;;8.50;1.88;;;;;;;3.92;47.78;101770.22;5031293;28;20150;-80
2022/02/10 16:21:36;;;;;;;6.57;0.35;;;;;;;3.59;48.21;101768.41;5071905;28;20037;-79
2022/02/10 16:24:13;;;;;;;4.22;0.75;;;;;;;3.46;48.71;101771.81;5053533;28;20045;-79
2022/02/10 16:26:52;;;;;;;10.23;0.68;;;;;;;3.76;47.87;101771.91;5027354;28;20040;-80
2022/02/10 16:29:21;;;;;;;10.38;1.35;;;;;;;3.31;48.75;101777.75;5023500;28;20487;-79
2022/02/10 16:31:47;;;;;;;14.25;1.33;;;;;;;3.78;48.25;101770.22;5046095;28;20136;-79
2022/02/10 16:34:13;;;;;;;7.15;0.50;;;;;;;3.81;47.77;101771.94;5042314;28;20032;-77
2022/02/10 16:36:40;;;;;;;7.00;0.60;;;;;;;3.46;48.35;101767.50;5024736;28;20044;-79
2022/02/10 16:39:06;;;;;;;15.45;0.80;;;;;;;3.45;48.74;101776.13;5041705;28;20079;-80
2022/02/10 16:41:33;;;;;;;12.25;1.00;;;;;;;3.46;48.19;101771.81;5058435;28;22805;-79
2022/02/10 16:43:59;;;;;;;5.70;0.50;;;;;;;3.26;48.36;101769.09;5025055;28;20428;-79
2022/02/10 16:46:25;;;;;;;10.10;1.58;;;;;;;3.37;48.03;101765.72;5043560;28;20337;-80
2022/02/10 16:48:51;;;;;;;9.10;0.73;;;;;;;3.10;48.39;101769.00;5058347;28;20477;-80
2022/02/10 16:51:20;;;;;;;6.00;0.73;;;;;;;3.08;48.24;101772.44;5056768;28;20022;-79
2022/02/10 16:53:51;;;;;;;13.15;1.85;;;;;;;3.06;48.14;101771.56;5056088;28;20049;-81
2022/02/10 16:56:25;;;;;;;4.28;0.70;;;;;;;3.25;48.09;101769.94;5069647;28;20111;-80
2022/02/10 17:02:04;;;;;;;17.40;0.88;;;;;;;2.97;48.30;101777.56;5054727;28;20040;-79
2022/02/10 17:04:53;;;;;;;9.45;0.80;;;;;;;3.10;48.45;101778.50;5040560;28;20041;-78
2022/02/10 17:16:42;;;;;;;9.93;0.80;;;;;;;3.43;47.71;101767.50;5053450;28;20094;-80
2022/02/10 17:21:28;;;;;;;8.77;0.65;;;;;;;2.67;48.79;101773.91;5039893;28;20559;-80
2022/02/10 17:53:26;;;;;;;6.70;2.33;;;;;;;2.44;50.07;101776.28;5072747;28;20055;-80
2022/02/10 17:55:53;;;;;;;14.80;1.27;;;;;;;2.81;49.37;101778.31;5054021;28;20033;-80
2022/02/10 17:58:22;;;;;;;12.80;1.05;;;;;;;2.80;49.13;101784.31;5069488;28;20124;-79
2022/02/10 18:00:59;;;;;;;6.65;0.63;;;;;;;2.40;50.38;101778.84;5061146;28;20040;-81
2022/02/10 18:03:26;;;;;;;8.18;0.65;;;;;;;2.64;49.94;101783.34;5021851;28;20487;-78
2022/02/10 18:08:31;;;;;;;11.70;0.90;;;;;;;2.70;49.50;101789.41;5076122;28;20041;-79
2022/02/10 18:16:17;;;;;;;4.95;1.00;;;;;;;2.54;49.93;101793.59;5044400;28;20025;-77
2022/02/10 18:18:51;;;;;;;19.15;2.13;;;;;;;3.07;48.86;101799.13;5045396;28;20479;-78
2022/02/10 18:26:54;;;;;;;9.60;1.20;;;;;;;2.76;49.71;101794.63;5043334;28;20040;-81
2022/02/10 18:30:13;;;;;;;4.82;0.80;;;;;;;2.47;50.54;101790.97;5045408;28;20051;-78
2022/02/10 19:07:21;;;;;;;2.70;0.80;;;;;;;1.80;53.03;101807.50;5061716;28;20067;-80
2022/02/10 19:09:49;;;;;;;4.78;0.68;;;;;;;2.17;51.63;101813.03;5056969;28;20068;-80
2022/02/10 19:12:29;;;;;;;6.97;1.05;;;;;;;2.41;50.86;101816.72;5076061;28;20637;-80
2022/02/10 19:15:18;;;;;;;15.45;1.80;;;;;;;2.55;50.77;101817.69;5057367;28;20114;-79
2022/02/10 19:17:45;;;;;;;9.38;0.82;;;;;;;2.36;51.00;101819.25;5058350;28;20490;-77
2022/02/10 19:20:12;;;;;;;9.32;0.82;;;;;;;1.86;52.24;101820.47;5028981;28;20032;-82
2022/02/10 19:22:38;;;;;;;9.88;0.52;;;;;;;2.39;51.20;101819.25;5027310;28;20060;-78
2022/02/10 19:25:05;;;;;;;4.68;0.52;;;;;;;2.66;50.35;101821.22;5028490;28;20088;-78
2022/02/10 19:27:32;;;;;;;8.23;0.68;;;;;;;2.36;51.01;101814.09;5055743;28;20053;-79
2022/02/10 19:29:58;;;;;;;14.57;1.33;;;;;;;2.47;50.80;101814.19;5041632;28;20471;-79
2022/02/10 19:32:29;;;;;;;3.40;0.60;;;;;;;2.23;51.05;101817.41;5051111;28;20626;-76
2022/02/10 19:34:57;;;;;;;15.48;1.33;;;;;;;2.47;50.60;101817.63;5008123;28;20033;-80
2022/02/10 19:37:25;;;;;;;7.25;0.68;;;;;;;2.26;51.22;101810.53;5017116;28;20550;-80
2022/02/10 19:39:56;;;;;;;2.55;0.50;;;;;;;2.08;51.65;101818.94;5004643;28;20053;-78
2022/02/10 19:42:25;;;;;;;13.07;1.38;;;;;;;2.27;51.02;101814.88;5020010;28;20419;-77
2022/02/10 19:44:54;;;;;;;10.30;1.08;;;;;;;2.18;51.03;101814.78;5017715;28;20052;-81
2022/02/10 19:47:20;;;;;;;7.13;1.23;;;;;;;2.42;50.42;101808.09;5008111;28;20037;-76
2022/02/10 19:49:46;;;;;;;7.00;0.82;;;;;;;2.53;50.17;101802.22;5037142;28;20032;-78
2022/02/10 19:52:13;;;;;;;11.60;0.50;;;;;;;2.22;50.87;101807.91;5025239;28;20045;-80
2022/02/10 19:54:45;;;;;;;9.20;1.33;;;;;;;2.22;50.72;101806.22;5028317;28;20033;-79
2022/02/10 19:57:14;;;;;;;6.97;0.70;;;;;;;2.26;50.46;101807.97;5029744;28;20044;-82
2022/02/10 19:59:40;;;;;;;3.17;0.55;;;;;;;2.08;51.33;101808.63;5062423;28;20032;-80
2022/02/10 20:02:07;;;;;;;12.38;1.10;;;;;;;1.89;51.56;101810.19;5028708;28;20036;-78
2022/02/10 20:04:33;;;;;;;17.25;1.58;;;;;;;1.59;52.55;101812.38;5058480;28;20356;-79
2022/02/10 20:06:59;;;;;;;14.18;2.67;;;;;;;1.96;51.39;101807.66;5060637;28;20045;-79
2022/02/10 20:09:25;;;;;;;7.97;1.33;;;;;;;1.75;51.95;101803.97;5044985;28;20494;-80
2022/02/10 20:11:51;;;;;;;3.97;0.50;;;;;;;1.96;51.80;101805.09;5024557;28;20037;-79
2022/02/10 20:14:20;;;;;;;17.30;1.73;;;;;;;1.77;52.00;101794.56;5063288;28;20450;-77
2022/02/10 20:16:47;;;;;;;8.82;1.02;;;;;;;2.01;51.27;101796.53;5059173;28;20025;-80
2022/02/10 20:19:13;;;;;;;13.55;0.93;;;;;;;2.08;51.09;101805.19;5064508;28;20124;-80
2022/02/10 20:21:39;;;;;;;10.65;0.77;;;;;;;1.84;51.79;101809.25;5060958;28;20461;-79
2022/02/10 20:24:06;;;;;;;8.27;1.55;;;;;;;2.00;51.37;101812.88;5062863;28;20110;-78
2022/02/10 20:26:32;;;;;;;7.82;0.82;;;;;;;1.99;50.99;101812.84;5046174;28;20037;-78
2022/02/10 20:28:58;;;;;;;4.57;0.50;;;;;;;1.90;51.41;101809.31;5063440;28;20479;-77
2022/02/10 20:31:24;;;;;;;8.68;1.65;;;;;;;1.51;52.67;101813.16;5062752;28;20047;-78
2022/02/10 20:33:51;;;;;;;3.30;0.50;;;;;;;1.98;51.34;101816.28;5061500;28;20458;-78
2022/02/10 20:36:17;;;;;;;6.28;1.50;;;;;;;2.01;51.49;101811.16;5060500;28;20021;-81
2022/02/10 20:38:47;;;;;;;4.30;0.73;;;;;;;2.31;50.51;101813.16;5058428;28;20044;-79
2022/02/10 20:41:16;;;;;;;9.23;1.58;;;;;;;2.40;50.60;101817.53;5044320;28;20035;-80
2022/02/10 20:43:44;;;;;;;8.45;0.57;;;;;;;1.52;52.39;101821.75;5056452;28;20192;-80
2022/02/10 20:46:13;;;;;;;9.18;1.95;;;;;;;2.01;51.51;101811.16;5055799;28;20696;-79
2022/02/10 20:48:41;;;;;;;5.40;0.93;;;;;;;1.61;52.43;101815.84;5071449;28;20037;-80
2022/02/10 20:51:10;;;;;;;6.05;0.40;;;;;;;1.50;52.64;101819.13;5060988;28;20025;-78
2022/02/10 20:53:38;;;;;;;7.55;0.77;;;;;;;1.96;51.24;101823.13;5061368;28;20029;-80
2022/02/10 20:56:07;;;;;;;7.53;0.60;;;;;;;1.59;52.32;101820.13;5061884;28;20414;-81
2022/02/10 20:58:33;;;;;;;13.27;1.25;;;;;;;1.80;51.68;101812.66;5043500;28;20033;-79
2022/02/10 21:01:01;;;;;;;7.75;1.42;;;;;;;1.61;52.46;101816.69;5021856;28;20359;-79
2022/02/10 21:03:32;;;;;;;5.13;0.63;;;;;;;1.56;52.21;101822.66;5016037;28;20132;-77
2022/02/10 21:06:17;;;;;;;10.65;1.23;;;;;;;1.77;51.84;101807.44;5043086;28;20085;-80
2022/02/10 21:08:58;;;;;;;12.63;1.35;;;;;;;1.53;52.40;101813.19;5015299;28;20046;-79
2022/02/10 21:11:26;;;;;;;7.63;0.65;;;;;;;1.77;51.87;101814.31;5044470;28;20110;-81
2022/02/10 21:13:52;;;;;;;5.40;1.17;;;;;;;1.59;52.37;101815.81;5060970;28;20045;-79
2022/02/10 21:16:17;;;;;;;5.50;0.65;;;;;;;1.84;52.16;101809.25;5055179;28;20025;-78
2022/02/10 21:18:44;;;;;;;8.60;1.25;;;;;;;1.76;52.12;101805.72;5035142;28;20491;-79
2022/02/10 21:21:15;;;;;;;8.27;1.08;;;;;;;1.54;52.81;101814.03;5038351;28;20553;-80
2022/02/10 21:23:56;;;;;;;13.52;0.68;;;;;;;1.73;52.65;101810.84;5056091;28;20049;-79
2022/02/10 21:26:28;;;;;;;12.85;1.77;;;;;;;1.54;52.69;101799.44;5011006;28;20120;-80
2022/02/10 21:28:59;;;;;;;6.55;0.80;;;;;;;1.70;52.26;101810.81;5028116;28;20029;-78
2022/02/10 21:31:25;;;;;;;7.68;1.08;;;;;;;1.65;52.51;101808.16;5030958;28;20097;-81
2022/02/10 21:34:06;;;;;;;4.53;0.52;;;;;;;1.82;51.68;101805.81;5043490;28;20042;-80
2022/02/10 21:39:57;;;;;;;8.20;1.30;;;;;;;1.76;52.11;101810.88;4992081;28;20046;-80
2022/02/10 22:09:12;;;;;;;2.90;0.30;;;;;;;1.81;51.23;101787.72;5052705;28;20033;-78
2022/02/10 22:19:19;;;;;;;7.82;1.65;;;;;;;2.03;51.09;101788.81;5019334;28;20041;-80
2022/02/10 22:21:49;;;;;;;9.70;0.63;;;;;;;1.39;52.13;101800.06;4997175;28;20033;-77
2022/02/10 22:24:17;;;;;;;13.15;0.65;;;;;;;1.82;50.92;101790.34;5047676;28;20029;-76
2022/02/10 22:26:43;;;;;;;15.27;1.45;;;;;;;1.22;52.02;101786.97;5036213;28;20417;-78
2022/02/10 22:29:19;;;;;;;13.07;1.17;;;;;;;1.92;50.96;101789.56;5051295;28;20040;-77
2022/02/10 22:32:12;;;;;;;8.82;1.65;;;;;;;1.50;51.65;101788.22;5008822;28;20128;-79
2022/02/10 22:34:39;;;;;;;22.60;1.70;;;;;;;1.18;52.76;101784.34;5000952;28;20546;-78
2022/02/10 22:37:08;;;;;;;9.85;0.90;;;;;;;1.39;52.05;101783.75;5003412;28;20045;-79
2022/02/10 22:39:39;;;;;;;7.32;0.68;;;;;;;1.79;50.90;101776.53;5036548;28;20934;-78
2022/02/10 22:42:05;;;;;;;8.35;0.40;;;;;;;1.74;51.08;101781.63;4988705;28;20040;-78
2022/02/10 22:44:31;;;;;;;5.85;1.00;;;;;;;1.53;51.75;101774.53;5015542;28;20056;-80
2022/02/10 22:46:57;;;;;;;15.63;1.58;;;;;;;1.30;52.80;101771.63;5001153;28;20049;-80
2022/02/10 22:49:23;;;;;;;7.22;1.23;;;;;;;1.08;53.33;101778.19;5004561;28;20071;-78
2022/02/10 22:51:48;;;;;;;13.55;1.02;;;;;;;1.67;52.11;101775.56;5035018;28;20073;-79
2022/02/10 22:54:14;;;;;;;4.85;1.20;;;;;;;1.85;51.16;101769.72;5018156;28;20025;-78
2022/02/10 22:56:43;;;;;;;8.02;0.80;;;;;;;2.16;50.34;101764.88;5023309;28;20129;-78
2022/02/10 22:59:09;;;;;;;8.68;1.55;;;;;;;2.15;50.00;101760.56;5035097;28;20582;-79
2022/02/10 23:01:36;;;;;;;10.68;1.77;;;;;;;2.09;50.49;101752.78;5036792;28;20132;-76
2022/02/10 23:04:02;;;;;;;10.85;1.85;;;;;;;2.02;50.61;101758.72;5054557;28;20091;-79
2022/02/10 23:06:28;;;;;;;8.90;1.58;;;;;;;1.82;51.03;101755.94;5056237;28;20033;-80
2022/02/10 23:08:54;;;;;;;6.22;1.15;;;;;;;1.49;52.37;101758.16;4993151;28;20045;-81
2022/02/10 23:11:28;;;;;;;12.57;1.63;;;;;;;1.44;52.51;101753.78;5003277;28;20025;-80
2022/02/10 23:13:57;;;;;;;5.47;0.90;;;;;;;1.20;53.17;101746.59;5032779;28;20108;-80
2022/02/10 23:16:22;;;;;;;3.35;0.60;;;;;;;1.30;52.77;101738.13;5019143;28;20026;-79
2022/02/10 23:18:48;;;;;;;15.02;1.33;;;;;;;1.27;52.97;101749.28;5035777;28;20053;-81
2022/02/10 23:21:15;;;;;;;3.92;0.90;;;;;;;1.31;52.72;101750.19;5015988;28;20124;-79
2022/02/10 23:23:46;;;;;;;10.77;1.95;;;;;;;1.40;52.33;101750.31;5035617;28;20057;-79
2022/02/10 23:26:14;;;;;;;2.13;0.52;;;;;;;1.41;52.44;101746.88;5022830;28;20506;-79
2022/02/10 23:28:46;;;;;;;6.30;1.08;;;;;;;1.28;52.52;101750.13;5054320;28;20045;-80
2022/02/10 23:31:14;;;;;;;4.75;1.05;;;;;;;1.34;52.55;101744.19;5004925;28;20034;-79
2022/02/10 23:33:43;;;;;;;7.60;0.65;;;;;;;0.70;54.31;101750.19;5020713;28;20037;-79
2022/02/10 23:36:37;;;;;;;15.82;0.90;;;;;;;1.06;53.46;101739.56;5023360;28;20022;-79
2022/02/10 23:39:09;;;;;;;8.05;1.20;;;;;;;0.62;54.75;101742.34;5021534;28;20037;-78
2022/02/10 23:41:53;;;;;;;14.90;0.98;;;;;;;0.49;54.79;101733.56;5022734;28;20045;-78
2022/02/10 23:44:51;;;;;;;10.50;1.05;;;;;;;0.63;54.58;101738.06;5006759;28;20119;-80
2022/02/10 23:47:17;;;;;;;4.03;0.77;;;;;;;0.23;55.85;101732.28;5017868;28;20122;-79
2022/02/10 23:49:43;;;;;;;10.18;0.82;;;;;;;0.01;56.91;101736.19;5020548;28;20433;-81
2022/02/10 23:52:10;;;;;;;7.93;1.38;;;;;;;0.37;55.69;101722.25;5041944;28;20041;-80
2022/02/10 23:54:39;;;;;;;4.25;0.82;;;;;;;0.20;56.29;101719.41;5042833;28;20033;-78
2022/02/10 23:57:16;;;;;;;5.63;0.93;;;;;;;0.23;56.11;101724.56;5054651;28;20048;-80
